עמוד ראשי
METAR-TAF:

METAR-TAF

שדות תעופה :

Unalaska, אלסקה, ארצות הברית

קו רוחב: 53-54N, קו אורך: 166-32W, גובה: 7מטר

תצפית מזג אוויר נוכחית

הדו"ח נערך לפני 21דקות, בשעה 17:22 UTC
רוח 5קשר מכיוון מזרח
טמפרטורת 8 צלסיוס
לחות 93%
לחץ 1013 hPa
ראות: 16.1קילומטר
מעט עננים בגובה 200רגל
עננים בינוניים בגובה 1300רגל
מעונן בגובה 2000רגל

METAR: PADU 201722Z 10005KT 10SM FEW002 BKN013 OVC020 08/07 A2990 RMK AO2 $

זמן: 09:43 (17:43 UTC)

תחזית

הדו"ח נערך לפני 5 שעות ו 58דקות, בשעה 11:45 UTC
תחזית בתוקף מ 20 ב 12 UTC עד 21 ב 12 UTC
רוח 4קשר מכיוון דרום-מזרח
ראות: 10קילומטר
מעונן בגובה 3000רגל
מ 20 ב 1500UTC
רוח 5קשר מכיוון צפון-מזרח
ראות: 6.4קילומטר
מעונן בגובה 1500רגל
אד
מ 20 ב 2100UTC
רוח 5קשר מכיוון צפון/צפון-מזרח
ראות: 9.7קילומטר
מעונן בגובה 1500רגל
אד,

TAF: PADU 201145Z 2012/2112 14004KT P6SM OVC030 FM201500 05005KT 4SM BR OVC015 FM202100 03005KT 6SM BR OVC015

תצפיות ותחזיות מזג אוויר לגבי יותר מ- 4,000 שדות תעופה ברחבי העולם. דוחות METAR ו- TAF.

התחנות הזמינות מסומנות בנקודות צהובות ואדומות על גבי המפה.

העבר את העכבר לנקודה הצבעונית על מנת לראות את שם התחנה.

לאחר מכן, לחץ כדי לראות את תוכן ואת תחזיות מזג האוויר.

כדי לשנות את המפה: לחץ על הכפתורים הירוקים עם הפלוס השחור כדי להתקרב; על הכפתור הירוק עם המקף כדי להתרחק; או בחיצים הירוקים למפות סמוכות.


METAR-TAF: